createdAt,value
2018-12-25T00:01:45.614Z,10.67
2018-12-25T00:04:15.123Z,10.30
2018-12-25T00:06:44.632Z,10.30
2018-12-25T00:09:14.123Z,10.67
2018-12-25T00:11:43.780Z,10.47
2018-12-25T00:14:13.644Z,10.83
2018-12-25T00:16:43.177Z,10.27
2018-12-25T00:19:12.615Z,11.20
2018-12-25T00:21:42.187Z,10.67
2018-12-25T00:24:11.692Z,10.53
2018-12-25T00:26:41.190Z,12.53
2018-12-25T00:29:10.694Z,11.90
2018-12-25T00:31:40.188Z,11.20
2018-12-25T00:34:09.710Z,10.50
2018-12-25T00:36:39.180Z,9.83
2018-12-25T00:39:08.698Z,10.68
2018-12-25T00:41:38.190Z,10.50
2018-12-25T00:44:07.757Z,10.33
2018-12-25T00:46:38.401Z,11.33
2018-12-25T00:49:14.696Z,10.93
2018-12-25T00:51:39.269Z,11.13
2018-12-25T00:54:08.782Z,11.50
2018-12-25T00:56:38.282Z,11.27
2018-12-25T00:59:07.783Z,10.43
2018-12-25T01:01:37.270Z,11.70
2018-12-25T01:04:06.847Z,10.97
2018-12-25T01:06:36.340Z,11.97
2018-12-25T01:09:07.341Z,11.55
2018-12-25T01:11:36.948Z,11.90
2018-12-25T01:14:07.357Z,12.57
2018-12-25T01:16:36.838Z,12.00
2018-12-25T01:19:06.323Z,12.27
2018-12-25T01:21:35.836Z,13.20
2018-12-25T01:24:05.335Z,12.67
2018-12-25T01:26:35.054Z,12.50
2018-12-25T01:29:04.546Z,11.97
2018-12-25T01:31:34.046Z,11.03
2018-12-25T01:34:03.566Z,11.37
2018-12-25T01:36:33.068Z,10.50
2018-12-25T01:39:02.615Z,11.50
2018-12-25T01:41:32.134Z,11.90
2018-12-25T01:44:01.619Z,12.03
2018-12-25T01:46:31.125Z,13.35
2018-12-25T01:49:00.610Z,12.80
2018-12-25T01:51:30.134Z,12.93
2018-12-25T01:53:59.625Z,12.60
2018-12-25T01:56:29.136Z,13.30
2018-12-25T01:58:58.703Z,12.43
2018-12-25T02:01:28.224Z,11.80
2018-12-25T02:03:57.757Z,12.40
2018-12-25T02:06:27.247Z,11.60
2018-12-25T02:08:56.966Z,11.80
2018-12-25T02:11:26.477Z,12.28
2018-12-25T02:13:55.972Z,12.80
2018-12-25T02:16:25.510Z,13.40
2018-12-25T02:18:55.005Z,13.87
2018-12-25T02:21:24.534Z,13.10
2018-12-25T02:23:54.043Z,13.17
2018-12-25T02:26:23.552Z,12.50
2018-12-25T02:28:53.038Z,12.83
2018-12-25T02:31:22.620Z,12.83
2018-12-25T02:33:52.108Z,12.80
2018-12-25T02:36:21.632Z,13.55
2018-12-25T02:38:51.128Z,14.43
2018-12-25T02:41:20.631Z,13.90
2018-12-25T02:43:50.134Z,14.33
2018-12-25T02:46:19.642Z,13.77
2018-12-25T02:48:49.136Z,13.73
2018-12-25T02:51:18.653Z,14.50
2018-12-25T02:53:48.165Z,14.37
2018-12-25T02:56:17.659Z,15.50
2018-12-25T02:58:47.152Z,15.00
2018-12-25T03:01:16.670Z,14.40
2018-12-25T03:03:46.162Z,14.77
2018-12-25T03:06:16.820Z,15.00
2018-12-25T03:08:46.323Z,14.87
2018-12-25T03:11:15.969Z,14.57
2018-12-25T03:13:45.460Z,14.70
2018-12-25T03:16:14.967Z,15.60
2018-12-25T03:18:45.099Z,14.23
2018-12-25T03:21:14.619Z,15.03
2018-12-25T03:23:44.134Z,14.03
2018-12-25T03:26:13.710Z,13.53
2018-12-25T03:28:43.202Z,12.40
2018-12-25T03:31:13.413Z,12.78
2018-12-25T03:33:42.920Z,13.63
2018-12-25T03:36:12.438Z,13.07
2018-12-25T03:38:41.943Z,13.30
2018-12-25T03:41:11.507Z,12.70
2018-12-25T03:43:41.922Z,12.53
2018-12-25T03:46:11.410Z,12.97
2018-12-25T03:48:40.932Z,13.63
2018-12-25T03:51:10.420Z,13.77
2018-12-25T03:53:39.938Z,13.47
2018-12-25T03:56:10.323Z,14.43
2018-12-25T03:58:39.839Z,14.07
2018-12-25T04:01:09.328Z,14.27
2018-12-25T04:03:38.841Z,13.23
2018-12-25T04:06:08.333Z,13.00
2018-12-25T04:08:57.925Z,13.78
2018-12-25T04:11:46.746Z,13.15
2018-12-25T04:14:16.260Z,12.83
2018-12-25T04:16:45.847Z,15.53
2018-12-25T04:19:34.689Z,14.40
2018-12-25T04:22:04.195Z,15.57
2018-12-25T04:24:33.686Z,15.43
2018-12-25T04:27:03.204Z,15.33
2018-12-25T04:29:32.755Z,13.63
2018-12-25T04:32:02.263Z,14.67
2018-12-25T04:34:31.753Z,15.60
2018-12-25T04:37:01.264Z,15.57
2018-12-25T04:39:30.777Z,14.23
2018-12-25T04:42:00.265Z,14.77
2018-12-25T04:44:29.780Z,15.70
2018-12-25T04:47:00.534Z,14.77
2018-12-25T04:49:30.041Z,15.83
2018-12-25T04:51:59.551Z,15.70
2018-12-25T04:54:29.066Z,15.53
2018-12-25T04:56:58.697Z,17.07
2018-12-25T04:59:29.157Z,15.95
2018-12-25T05:01:58.725Z,16.23
2018-12-25T05:04:28.310Z,16.03
2018-12-25T05:06:57.804Z,15.57
2018-12-25T05:09:27.311Z,14.80
2018-12-25T05:11:57.517Z,15.65
2018-12-25T05:14:27.081Z,15.63
2018-12-25T05:16:56.575Z,15.47
2018-12-25T05:19:26.067Z,15.83
2018-12-25T05:21:55.667Z,16.93
2018-12-25T05:24:25.771Z,17.87
2018-12-25T05:26:55.274Z,16.17
2018-12-25T05:29:24.778Z,15.77
2018-12-25T05:31:54.285Z,14.60
2018-12-25T05:34:23.861Z,15.13
2018-12-25T05:36:54.043Z,14.58
2018-12-25T05:39:23.548Z,15.00
2018-12-25T05:41:53.042Z,15.23
2018-12-25T05:44:22.529Z,14.67
2018-12-25T05:46:52.038Z,14.80
2018-12-25T05:49:22.252Z,15.13
2018-12-25T05:51:51.745Z,14.33
2018-12-25T05:54:21.238Z,15.17
2018-12-25T05:56:50.745Z,15.97
2018-12-25T05:59:20.245Z,15.67
2018-12-25T06:01:50.512Z,15.80
2018-12-25T06:04:20.366Z,15.50
2018-12-25T06:06:49.849Z,16.53
2018-12-25T06:09:19.348Z,16.67
2018-12-25T06:11:48.863Z,16.55
2018-12-25T06:14:18.884Z,16.17
2018-12-25T06:16:48.373Z,17.43
2018-12-25T06:19:17.963Z,17.57
2018-12-25T06:21:47.479Z,15.97
2018-12-25T06:24:16.997Z,17.03
2018-12-25T06:26:47.211Z,17.40
2018-12-25T06:29:16.703Z,16.33
2018-12-25T06:31:46.213Z,16.37
2018-12-25T06:34:15.728Z,16.60
2018-12-25T06:36:45.230Z,16.57
2018-12-25T06:39:15.398Z,17.00
2018-12-25T06:41:44.972Z,16.90
2018-12-25T06:44:14.478Z,17.53
2018-12-25T06:46:43.995Z,17.13
2018-12-25T06:49:13.566Z,18.50
2018-12-25T06:51:43.732Z,18.90
2018-12-25T06:54:13.227Z,18.33
2018-12-25T06:56:42.720Z,19.20
2018-12-25T06:59:12.237Z,17.77
2018-12-25T07:01:41.803Z,16.27
2018-12-25T07:04:12.052Z,18.30
2018-12-25T07:06:41.558Z,16.97
2018-12-25T07:09:11.074Z,16.83
2018-12-25T07:11:40.587Z,17.35
2018-12-25T07:14:10.083Z,17.17
2018-12-25T07:16:40.693Z,17.48
2018-12-25T07:19:10.223Z,16.43
2018-12-25T07:21:39.701Z,16.90
2018-12-25T07:24:09.187Z,16.40
2018-12-25T07:26:38.704Z,16.67
2018-12-25T07:29:08.773Z,16.23
2018-12-25T07:31:38.268Z,16.90
2018-12-25T07:34:07.773Z,15.93
2018-12-25T07:36:37.281Z,16.27
2018-12-25T07:39:07.557Z,15.97
2018-12-25T07:41:37.198Z,16.00
2018-12-25T07:44:06.688Z,15.67
2018-12-25T07:46:36.196Z,15.33
2018-12-25T07:49:05.675Z,15.68
2018-12-25T07:51:35.178Z,15.53
2018-12-25T07:54:05.649Z,16.62
2018-12-25T07:56:35.165Z,16.73
2018-12-25T07:59:04.717Z,15.90
2018-12-25T08:01:34.207Z,16.23
2018-12-25T08:04:03.723Z,17.13
2018-12-25T08:06:33.870Z,17.40
2018-12-25T08:09:03.751Z,15.97
2018-12-25T08:11:33.249Z,16.45
2018-12-25T08:14:02.779Z,17.73
2018-12-25T08:16:32.266Z,14.63
2018-12-25T08:19:02.080Z,15.45
2018-12-25T08:21:31.753Z,16.43
2018-12-25T08:24:01.246Z,17.80
2018-12-25T08:26:30.735Z,21.03
2018-12-25T08:29:00.242Z,20.48
2018-12-25T08:31:30.292Z,21.30
2018-12-25T08:33:59.809Z,20.57
2018-12-25T08:36:29.299Z,21.63
2018-12-25T08:38:58.787Z,21.50
2018-12-25T08:41:28.290Z,21.87
2018-12-25T08:43:58.629Z,20.15
2018-12-25T08:46:28.146Z,19.57
2018-12-25T08:52:17.948Z,18.30
2018-12-25T08:55:06.836Z,18.37
2018-12-25T08:57:36.323Z,18.80
2018-12-25T09:00:10.871Z,20.17
2018-12-25T09:02:40.383Z,19.83
2018-12-25T09:05:09.899Z,18.27
2018-12-25T09:07:39.411Z,18.50
2018-12-25T09:10:09.028Z,16.17
2018-12-25T09:12:38.544Z,16.67
2018-12-25T09:15:08.070Z,16.20
2018-12-25T09:17:37.560Z,15.67
2018-12-25T09:20:07.312Z,15.40
2018-12-25T09:22:36.802Z,15.65
2018-12-25T09:25:06.467Z,15.03
2018-12-25T09:27:36.004Z,14.13
2018-12-25T09:30:08.773Z,13.67
2018-12-25T09:32:38.279Z,14.43
2018-12-25T09:35:07.770Z,14.13
2018-12-25T09:37:37.264Z,14.20
2018-12-25T09:40:08.216Z,13.13
2018-12-25T09:42:37.744Z,13.00
2018-12-25T09:45:07.522Z,15.03
2018-12-25T09:47:37.021Z,14.18
2018-12-25T09:50:06.610Z,11.27
2018-12-25T09:52:36.087Z,11.93
2018-12-25T09:55:06.013Z,11.63
2018-12-25T09:57:35.496Z,12.53
2018-12-25T10:00:07.319Z,13.30
2018-12-25T10:02:36.799Z,13.83
2018-12-25T10:05:06.521Z,10.37
2018-12-25T10:07:36.031Z,12.85
2018-12-25T10:10:07.369Z,12.70
2018-12-25T10:12:36.868Z,11.70
2018-12-25T10:15:07.366Z,11.17
2018-12-25T10:17:36.909Z,10.87
2018-12-25T10:20:06.675Z,11.03
2018-12-25T10:22:36.194Z,11.53
2018-12-25T10:25:05.749Z,10.33
2018-12-25T10:27:35.321Z,10.57
2018-12-25T10:30:06.346Z,10.50
2018-12-25T10:32:35.878Z,11.60
2018-12-25T10:35:06.011Z,12.05
2018-12-25T10:37:35.558Z,13.87
2018-12-25T10:40:06.666Z,13.50
2018-12-25T10:42:36.177Z,12.33
2018-12-25T10:45:06.018Z,12.20
2018-12-25T10:47:35.756Z,12.53
2018-12-25T10:50:24.576Z,12.43
2018-12-25T10:52:54.097Z,12.67
2018-12-25T10:55:23.586Z,12.17
2018-12-25T10:57:53.133Z,11.30
2018-12-25T11:00:22.606Z,11.07
2018-12-25T11:02:52.116Z,11.80
2018-12-25T11:05:21.661Z,10.60
2018-12-25T11:07:51.192Z,11.33
2018-12-25T11:10:20.675Z,12.40
2018-12-25T11:12:50.199Z,11.63
2018-12-25T11:15:19.691Z,12.43
2018-12-25T11:17:49.202Z,13.13
2018-12-25T11:20:19.774Z,11.95
2018-12-25T11:22:49.283Z,14.17
2018-12-25T11:25:18.772Z,13.70
2018-12-25T11:27:48.296Z,15.53
2018-12-25T11:30:17.790Z,14.20
2018-12-25T11:32:47.978Z,13.80
2018-12-25T11:35:17.481Z,13.83
2018-12-25T11:37:47.003Z,13.20
2018-12-25T11:40:16.490Z,14.07
2018-12-25T11:42:46.005Z,14.50
2018-12-25T11:45:16.501Z,17.85
2018-12-25T11:47:46.024Z,13.90
2018-12-25T11:50:15.507Z,13.73
2018-12-25T11:52:45.040Z,13.00
2018-12-25T11:55:14.572Z,14.43
2018-12-25T11:57:44.794Z,12.88
2018-12-25T12:00:14.286Z,13.70
2018-12-25T12:02:43.782Z,12.17
2018-12-25T12:05:13.316Z,13.23
2018-12-25T12:07:42.838Z,12.67
2018-12-25T12:10:12.991Z,12.55
2018-12-25T12:12:42.500Z,13.30
2018-12-25T12:15:12.039Z,13.57
2018-12-25T12:17:41.533Z,13.63
2018-12-25T12:20:11.057Z,13.23
2018-12-25T12:22:41.268Z,12.10
2018-12-25T12:25:10.763Z,13.10
2018-12-25T12:27:40.261Z,13.17
2018-12-25T12:30:09.766Z,13.60
2018-12-25T12:32:39.365Z,12.00
2018-12-25T12:35:09.443Z,12.63
2018-12-25T12:37:38.966Z,12.97
2018-12-25T12:40:08.927Z,12.87
2018-12-25T12:42:38.449Z,13.57
2018-12-25T12:45:08.812Z,12.50
2018-12-25T12:47:38.336Z,13.17
2018-12-25T12:50:09.649Z,11.67
2018-12-25T12:52:45.445Z,10.63
2018-12-25T12:55:10.472Z,11.57
2018-12-25T12:57:40.002Z,12.28
2018-12-25T13:00:09.741Z,11.97
2018-12-25T13:02:39.259Z,11.37
2018-12-25T13:05:09.138Z,9.93
2018-12-25T13:07:38.623Z,10.40
2018-12-25T13:10:09.603Z,10.18
2018-12-25T13:12:39.282Z,10.10
2018-12-25T13:15:08.849Z,10.23
2018-12-25T13:17:38.382Z,10.07
2018-12-25T13:20:07.871Z,11.90
2018-12-25T13:22:37.397Z,10.15
2018-12-25T13:25:06.884Z,10.80
2018-12-25T13:27:36.441Z,10.37
2018-12-25T13:30:09.104Z,11.03
2018-12-25T13:32:38.641Z,10.50
2018-12-25T13:35:08.133Z,9.43
2018-12-25T13:37:37.610Z,9.53
2018-12-25T13:40:07.789Z,10.25
2018-12-25T13:42:38.198Z,9.95
2018-12-25T13:45:07.762Z,10.73
2018-12-25T13:47:37.291Z,11.93
2018-12-25T13:50:09.420Z,10.77
2018-12-25T13:52:38.949Z,10.50
2018-12-25T13:55:08.449Z,10.07
2018-12-25T13:57:37.972Z,11.07
2018-12-25T14:00:07.632Z,9.57
2018-12-25T14:02:37.120Z,12.47
2018-12-25T14:05:07.066Z,11.17
2018-12-25T14:07:36.545Z,9.70
2018-12-25T14:10:09.252Z,10.20
2018-12-25T14:12:38.776Z,9.53
2018-12-25T14:15:08.374Z,10.83
2018-12-25T14:17:37.938Z,10.10
2018-12-25T14:20:07.867Z,10.33
2018-12-25T14:22:37.452Z,9.17
2018-12-25T14:25:07.330Z,10.40
2018-12-25T14:27:36.891Z,10.20
2018-12-25T14:30:09.528Z,10.13
2018-12-25T14:32:39.088Z,9.83
2018-12-25T14:35:08.690Z,11.10
2018-12-25T14:37:39.013Z,10.63
2018-12-25T14:40:08.847Z,11.53
2018-12-25T14:42:38.411Z,11.93
2018-12-25T14:45:08.038Z,11.93
2018-12-25T14:47:37.581Z,13.03
2018-12-25T14:50:09.542Z,13.93
2018-12-25T14:52:39.033Z,12.43
2018-12-25T14:55:08.619Z,12.10
2018-12-25T14:57:38.167Z,11.87
2018-12-25T15:00:10.967Z,12.03
2018-12-25T15:02:40.592Z,11.60
2018-12-25T15:05:10.407Z,12.33
2018-12-25T15:07:39.971Z,11.63
2018-12-25T15:10:09.563Z,15.00
2018-12-25T15:12:39.096Z,12.30
2018-12-25T15:15:08.703Z,18.10
2018-12-25T15:17:38.498Z,14.40
2018-12-25T15:20:08.271Z,15.63
2018-12-25T15:22:37.767Z,14.23
2018-12-25T15:25:07.539Z,14.60
2018-12-25T15:27:37.024Z,16.13
2018-12-25T15:30:08.101Z,22.48
2018-12-25T15:32:37.584Z,14.30
2018-12-25T15:35:11.575Z,16.70
2018-12-25T15:37:41.140Z,19.20
2018-12-25T15:40:10.618Z,17.47
2018-12-25T15:42:40.111Z,22.83
2018-12-25T15:45:09.988Z,12.23
2018-12-25T15:47:39.480Z,13.07
2018-12-25T15:50:09.180Z,12.40
2018-12-25T15:52:38.744Z,12.13
2018-12-25T15:55:08.496Z,12.43
2018-12-25T15:57:38.154Z,13.23
2018-12-25T16:00:12.689Z,12.80
2018-12-25T16:02:42.263Z,19.13
2018-12-25T16:05:11.785Z,16.87
2018-12-25T16:07:41.286Z,19.98
2018-12-25T16:10:10.814Z,18.37
2018-12-25T16:12:41.075Z,15.25
2018-12-25T16:15:10.603Z,19.70
2018-12-25T16:17:40.101Z,18.50
2018-12-25T16:20:10.872Z,17.10
2018-12-25T16:22:40.346Z,13.80
2018-12-25T16:25:09.882Z,13.03
2018-12-25T16:27:39.372Z,30.03
2018-12-25T16:30:09.463Z,21.65
2018-12-25T16:32:39.041Z,17.87
2018-12-25T16:35:08.620Z,14.43
2018-12-25T16:37:38.126Z,12.70
2018-12-25T16:40:08.571Z,13.67
2018-12-25T16:42:38.074Z,13.27
2018-12-25T16:45:07.617Z,12.20
2018-12-25T16:47:37.120Z,12.15
2018-12-25T16:50:06.731Z,16.00
2018-12-25T16:52:36.230Z,11.67
2018-12-25T16:55:06.047Z,10.30
2018-12-25T16:57:35.589Z,11.63
2018-12-25T17:00:08.541Z,11.60
2018-12-25T17:02:38.049Z,13.10
2018-12-25T17:05:08.916Z,15.43
2018-12-25T17:07:38.429Z,17.70
2018-12-25T17:10:08.445Z,15.17
2018-12-25T17:12:37.953Z,11.83
2018-12-25T17:15:07.600Z,13.35
2018-12-25T17:17:37.590Z,13.08
2018-12-25T17:20:08.873Z,13.70
2018-12-25T17:22:38.372Z,13.00
2018-12-25T17:25:07.920Z,12.50
2018-12-25T17:27:37.426Z,13.60
2018-12-25T17:30:09.184Z,13.30
2018-12-25T17:32:38.675Z,13.23
2018-12-25T17:35:08.186Z,14.50
2018-12-25T17:37:37.799Z,13.73
2018-12-25T17:40:07.972Z,14.37
2018-12-25T17:42:37.554Z,14.80
2018-12-25T17:45:08.149Z,20.23
2018-12-25T17:47:37.734Z,30.20
2018-12-25T17:50:07.519Z,26.27
2018-12-25T17:52:37.080Z,30.10
2018-12-25T17:55:06.631Z,27.02
2018-12-25T17:57:36.586Z,25.35
2018-12-25T18:00:07.342Z,22.53
2018-12-25T18:02:36.941Z,23.37
2018-12-25T18:05:11.878Z,21.23
2018-12-25T18:07:37.796Z,21.30
2018-12-25T18:10:07.534Z,20.20
2018-12-25T18:12:37.079Z,20.17
2018-12-25T18:15:06.829Z,19.33
2018-12-25T18:17:36.379Z,20.02
2018-12-25T18:20:07.820Z,20.87
2018-12-25T18:22:37.382Z,20.50
2018-12-25T18:25:06.885Z,21.20
2018-12-25T18:27:36.459Z,19.97
2018-12-25T18:30:07.770Z,20.00
2018-12-25T18:32:37.322Z,20.47
2018-12-25T18:35:06.831Z,20.23
2018-12-25T18:37:36.417Z,19.33
2018-12-25T18:40:07.858Z,21.73
2018-12-25T18:42:37.426Z,20.77
2018-12-25T18:45:07.820Z,19.40
2018-12-25T18:47:37.390Z,19.50
2018-12-25T18:50:08.904Z,19.63
2018-12-25T18:52:39.722Z,18.80
2018-12-25T18:55:09.226Z,18.33
2018-12-25T18:57:58.076Z,18.67
2018-12-25T19:00:27.634Z,18.43
2018-12-25T19:02:57.471Z,18.30
2018-12-25T19:05:27.028Z,17.67
2018-12-25T19:07:56.522Z,18.23
2018-12-25T19:10:26.072Z,17.93
2018-12-25T19:12:56.287Z,19.82
2018-12-25T19:15:25.832Z,28.97
2018-12-25T19:17:55.376Z,28.60
2018-12-25T19:20:24.886Z,26.80
2018-12-25T19:22:54.387Z,26.07
2018-12-25T19:25:24.794Z,28.47
2018-12-25T19:27:54.348Z,20.57
2018-12-25T19:30:23.915Z,22.47
2018-12-25T19:32:54.031Z,22.43
2018-12-25T19:35:23.651Z,22.37
2018-12-25T19:37:53.263Z,23.13
2018-12-25T19:40:22.883Z,23.90
2018-12-25T19:42:52.397Z,23.90
2018-12-25T19:45:22.888Z,25.30
2018-12-25T19:47:52.440Z,25.75
2018-12-25T19:50:21.947Z,23.53
2018-12-25T19:52:51.451Z,20.63
2018-12-25T19:55:21.083Z,22.20
2018-12-25T19:57:50.663Z,21.23
2018-12-25T20:00:20.162Z,21.03
2018-12-25T20:02:51.973Z,20.27
2018-12-25T20:05:38.123Z,21.37
2018-12-25T20:08:55.722Z,20.40
2018-12-25T20:11:54.757Z,21.05
2018-12-25T20:15:03.496Z,22.10
2018-12-25T20:18:06.146Z,19.70
2018-12-25T20:20:51.926Z,20.83
2018-12-25T20:23:58.512Z,19.97
2018-12-25T20:27:02.741Z,26.00
2018-12-25T20:29:48.613Z,21.83
2018-12-25T20:32:28.603Z,25.33
2018-12-25T20:35:35.127Z,22.73
2018-12-25T20:38:49.541Z,24.97
2018-12-25T20:41:47.437Z,25.43
2018-12-25T20:44:47.076Z,27.40
2018-12-25T20:47:38.993Z,31.57
2018-12-25T20:50:27.882Z,55.67
2018-12-25T20:53:27.310Z,48.20
2018-12-25T20:56:35.711Z,27.67
2018-12-25T20:59:30.677Z,27.30
2018-12-25T21:02:16.263Z,28.87
2018-12-25T21:05:14.443Z,28.20
2018-12-25T21:07:51.310Z,30.57
2018-12-25T21:10:47.850Z,28.07
2018-12-25T21:13:50.254Z,26.43
2018-12-25T21:16:46.693Z,22.97
2018-12-25T21:19:38.862Z,25.70
2018-12-25T21:22:15.839Z,22.20
2018-12-25T21:25:39.545Z,23.77
2018-12-25T21:28:07.486Z,21.43
2018-12-25T21:30:37.337Z,22.93
2018-12-25T21:33:07.012Z,22.40
2018-12-25T21:35:36.629Z,21.40
2018-12-25T21:38:06.417Z,21.20
2018-12-25T21:40:36.178Z,21.83
2018-12-25T21:43:06.267Z,20.00
2018-12-25T21:45:36.054Z,20.90
2018-12-25T21:48:05.700Z,20.43
2018-12-25T21:50:35.415Z,20.83
2018-12-25T21:53:05.052Z,21.60
2018-12-25T21:55:34.774Z,21.53
2018-12-25T21:58:04.259Z,21.00
2018-12-25T22:00:35.385Z,21.40
2018-12-25T22:03:05.088Z,18.30
2018-12-25T22:05:34.709Z,19.53
2018-12-25T22:08:04.204Z,20.27
2018-12-25T22:10:34.779Z,19.45
2018-12-25T22:13:04.265Z,20.27
2018-12-25T22:15:33.776Z,21.67
2018-12-25T22:18:03.444Z,20.80
2018-12-25T22:20:33.382Z,21.68
2018-12-25T22:23:03.037Z,22.83
2018-12-25T22:25:32.613Z,23.50
2018-12-25T22:28:02.146Z,23.80
2018-12-25T22:30:31.717Z,25.23
2018-12-25T22:33:01.315Z,21.83
2018-12-25T22:35:31.566Z,22.27
2018-12-25T22:38:01.109Z,24.03
2018-12-25T22:40:30.592Z,22.47
2018-12-25T22:43:00.120Z,22.40
2018-12-25T22:45:29.640Z,23.63
2018-12-25T22:47:59.851Z,40.23
2018-12-25T22:50:29.504Z,27.33
2018-12-25T22:52:58.983Z,25.63
2018-12-25T22:55:35.788Z,22.20
2018-12-25T22:57:59.780Z,20.30
2018-12-25T23:00:29.897Z,18.10
2018-12-25T23:02:59.404Z,17.67
2018-12-25T23:05:29.075Z,16.50
2018-12-25T23:07:58.654Z,18.37
2018-12-25T23:10:28.167Z,19.43
2018-12-25T23:12:57.725Z,19.70
2018-12-25T23:15:27.265Z,19.67
2018-12-25T23:17:56.784Z,18.97
2018-12-25T23:20:28.748Z,19.27
2018-12-25T23:22:57.522Z,17.93
2018-12-25T23:25:27.082Z,18.63
2018-12-25T23:27:56.957Z,19.10
2018-12-25T23:30:26.460Z,46.00
2018-12-25T23:32:56.181Z,26.77
2018-12-25T23:35:25.683Z,25.53
2018-12-25T23:37:55.207Z,22.73
2018-12-25T23:40:24.716Z,23.57
2018-12-25T23:42:54.234Z,28.03
2018-12-25T23:45:23.736Z,26.63
2018-12-25T23:47:53.282Z,23.00
2018-12-25T23:50:23.070Z,22.00
2018-12-25T23:52:52.593Z,23.60
2018-12-25T23:55:22.067Z,26.40
2018-12-25T23:57:51.587Z,24.93
